createdAt,value
2019-05-16T00:01:38.395Z,10.15
2019-05-16T00:04:08.481Z,10.11
2019-05-16T00:06:35.917Z,10.11
2019-05-16T00:09:04.726Z,10.12
2019-05-16T00:11:32.656Z,10.12
2019-05-16T00:14:00.383Z,10.12
2019-05-16T00:16:28.794Z,10.06
2019-05-16T00:18:58.306Z,10.09
2019-05-16T00:21:28.272Z,10.10
2019-05-16T00:23:56.058Z,10.09
2019-05-16T00:26:23.869Z,10.08
2019-05-16T00:28:51.584Z,10.07
2019-05-16T00:31:19.561Z,10.07
2019-05-16T00:33:48.783Z,10.05
2019-05-16T00:36:18.704Z,9.99
2019-05-16T00:38:48.352Z,10.00
2019-05-16T00:41:17.933Z,10.02
2019-05-16T00:43:45.791Z,10.01
2019-05-16T00:46:13.673Z,10.03
2019-05-16T00:48:41.527Z,10.03
2019-05-16T00:51:10.084Z,10.02
2019-05-16T00:53:38.238Z,10.02
2019-05-16T00:56:07.915Z,10.01
2019-05-16T00:58:38.005Z,10.03
2019-05-16T01:01:08.338Z,10.04
2019-05-16T01:03:37.689Z,10.05
2019-05-16T01:06:15.732Z,10.06
2019-05-16T01:08:35.157Z,10.05
2019-05-16T01:11:03.807Z,10.04
2019-05-16T01:13:31.696Z,10.05
2019-05-16T01:15:59.523Z,10.02
2019-05-16T01:18:28.738Z,10.03
2019-05-16T01:20:58.573Z,10.04
2019-05-16T01:23:28.252Z,10.04
2019-05-16T01:25:58.637Z,10.05
2019-05-16T01:28:28.280Z,10.06
2019-05-16T01:30:58.046Z,10.03
2019-05-16T01:33:27.925Z,10.05
2019-05-16T01:35:55.713Z,10.06
2019-05-16T01:38:23.666Z,10.04
2019-05-16T01:40:51.477Z,10.05
2019-05-16T01:43:19.312Z,10.05
2019-05-16T01:45:48.716Z,10.03
2019-05-16T01:48:19.095Z,10.04
2019-05-16T01:50:48.154Z,10.08
2019-05-16T01:53:17.910Z,10.09
2019-05-16T01:55:45.965Z,10.08
2019-05-16T01:58:13.769Z,10.08
2019-05-16T02:00:52.415Z,10.06
2019-05-16T02:03:11.907Z,10.08
2019-05-16T02:05:39.840Z,10.07
2019-05-16T02:08:08.848Z,10.07
2019-05-16T02:10:37.880Z,10.06
2019-05-16T02:13:08.332Z,10.07
2019-05-16T02:15:38.110Z,10.07
2019-05-16T02:18:08.011Z,10.07
2019-05-16T02:20:35.123Z,10.05
2019-05-16T02:23:02.942Z,10.03
2019-05-16T02:25:30.693Z,10.03
2019-05-16T02:27:59.006Z,10.04
2019-05-16T02:30:27.052Z,10.06
2019-05-16T02:32:54.852Z,10.03
2019-05-16T02:35:22.687Z,10.03
2019-05-16T02:37:54.771Z,10.00
2019-05-16T02:40:22.710Z,10.03
2019-05-16T02:42:51.486Z,10.01
2019-05-16T02:45:24.656Z,10.01
2019-05-16T02:47:51.512Z,10.02
2019-05-16T02:50:22.400Z,10.03
2019-05-16T02:52:51.674Z,10.06
2019-05-16T02:55:21.685Z,10.06
2019-05-16T02:57:50.957Z,10.06
2019-05-16T03:00:32.732Z,10.06
2019-05-16T03:03:01.295Z,10.09
2019-05-16T03:05:30.683Z,10.09
2019-05-16T03:08:01.313Z,10.09
2019-05-16T03:10:31.106Z,10.10
2019-05-16T03:13:00.965Z,10.08
2019-05-16T03:15:30.968Z,10.09
2019-05-16T03:18:03.793Z,10.08
2019-05-16T03:20:33.286Z,10.09
2019-05-16T03:23:02.294Z,10.08
2019-05-16T03:25:31.126Z,10.09
2019-05-16T03:28:01.781Z,10.10
2019-05-16T03:30:34.154Z,10.11
2019-05-16T03:33:03.827Z,10.11
2019-05-16T03:35:33.426Z,10.11
2019-05-16T03:38:01.499Z,10.11
2019-05-16T03:40:31.114Z,10.12
2019-05-16T03:43:01.042Z,10.12
2019-05-16T03:45:27.293Z,10.12
2019-05-16T03:47:54.999Z,10.11
2019-05-16T03:50:22.998Z,10.10
2019-05-16T03:52:51.071Z,10.09
2019-05-16T03:55:21.391Z,10.11
2019-05-16T03:57:51.512Z,10.10
2019-05-16T04:00:22.128Z,10.10
2019-05-16T04:02:52.324Z,10.08
2019-05-16T04:05:21.098Z,10.09
2019-05-16T04:07:53.077Z,10.12
2019-05-16T04:10:21.532Z,10.12
2019-05-16T04:12:51.346Z,10.11
2019-05-16T04:15:21.524Z,10.11
2019-05-16T04:17:51.279Z,10.12
2019-05-16T04:20:21.560Z,10.13
2019-05-16T04:22:51.256Z,10.14
2019-05-16T04:25:21.370Z,10.11
2019-05-16T04:27:50.205Z,10.12
2019-05-16T04:30:21.668Z,10.14
2019-05-16T04:32:50.846Z,10.12
2019-05-16T04:35:17.581Z,10.12
2019-05-16T04:37:45.318Z,10.11
2019-05-16T04:40:13.961Z,10.13
2019-05-16T04:42:42.840Z,10.15
2019-05-16T04:45:12.323Z,10.15
2019-05-16T04:47:41.390Z,10.16
2019-05-16T04:50:11.747Z,10.19
2019-05-16T04:52:41.992Z,10.13
2019-05-16T04:55:11.862Z,10.15
2019-05-16T04:57:42.556Z,10.17
2019-05-16T05:00:11.627Z,10.18
2019-05-16T05:02:41.912Z,10.19
2019-05-16T05:05:12.598Z,10.21
2019-05-16T05:07:40.717Z,10.20
2019-05-16T05:10:11.268Z,10.23
2019-05-16T05:12:40.800Z,10.23
2019-05-16T05:15:11.772Z,10.22
2019-05-16T05:17:41.284Z,10.21
2019-05-16T05:20:10.614Z,10.11
2019-05-16T05:22:39.760Z,10.21
2019-05-16T05:25:10.645Z,10.22
2019-05-16T05:27:38.032Z,10.26
2019-05-16T05:30:06.351Z,10.25
2019-05-16T05:32:34.079Z,10.26
2019-05-16T05:35:01.982Z,10.30
2019-05-16T05:37:29.984Z,10.31
2019-05-16T05:39:59.889Z,10.32
2019-05-16T05:42:27.561Z,10.30
2019-05-16T05:44:55.343Z,10.31
2019-05-16T05:47:23.057Z,10.34
2019-05-16T05:49:50.785Z,10.36
2019-05-16T05:52:20.835Z,10.37
2019-05-16T05:54:50.260Z,10.41
2019-05-16T05:57:20.720Z,10.41
2019-05-16T05:59:49.728Z,10.42
2019-05-16T06:02:17.366Z,10.44
2019-05-16T06:04:45.703Z,10.45
2019-05-16T06:07:13.627Z,10.41
2019-05-16T06:09:52.882Z,10.36
2019-05-16T06:12:11.213Z,10.32
2019-05-16T06:14:41.797Z,10.28
2019-05-16T06:17:11.285Z,10.23
2019-05-16T06:19:40.249Z,10.27
2019-05-16T06:22:10.183Z,10.23
2019-05-16T06:24:39.942Z,10.21
2019-05-16T06:27:09.722Z,10.20
2019-05-16T06:29:37.217Z,10.18
2019-05-16T06:32:05.631Z,10.17
2019-05-16T06:34:33.866Z,10.17
2019-05-16T06:37:01.650Z,10.18
2019-05-16T06:39:41.183Z,10.15
2019-05-16T06:42:00.566Z,10.20
2019-05-16T06:44:30.746Z,10.21
2019-05-16T06:47:15.007Z,10.27
2019-05-16T06:49:30.257Z,10.30
2019-05-16T06:51:59.557Z,10.28
2019-05-16T06:54:29.728Z,10.33
2019-05-16T06:56:57.002Z,10.34
2019-05-16T06:59:24.941Z,10.37
2019-05-16T07:01:52.789Z,10.38
2019-05-16T07:04:20.655Z,10.37
2019-05-16T07:06:58.613Z,10.41
2019-05-16T07:09:20.527Z,10.41
2019-05-16T07:11:50.315Z,10.44
2019-05-16T07:14:17.782Z,10.45
2019-05-16T07:16:45.709Z,10.49
2019-05-16T07:19:13.657Z,10.51
2019-05-16T07:21:42.054Z,10.53
2019-05-16T07:24:10.990Z,10.56
2019-05-16T07:26:40.537Z,10.60
2019-05-16T07:29:11.039Z,10.59
2019-05-16T07:31:40.609Z,10.55
2019-05-16T07:34:10.782Z,10.55
2019-05-16T07:36:40.475Z,10.55
2019-05-16T07:39:10.553Z,10.55
2019-05-16T07:41:40.013Z,10.54
2019-05-16T07:44:10.563Z,10.53
2019-05-16T07:46:37.277Z,10.53
2019-05-16T07:49:05.014Z,10.55
2019-05-16T07:51:32.821Z,10.61
2019-05-16T07:54:00.569Z,10.64
2019-05-16T07:56:31.054Z,10.58
2019-05-16T07:59:00.893Z,10.57
2019-05-16T08:01:30.715Z,10.59
2019-05-16T08:03:59.962Z,10.62
2019-05-16T08:06:31.029Z,10.64
2019-05-16T08:09:00.247Z,10.65
2019-05-16T08:11:30.284Z,10.70
2019-05-16T08:13:57.401Z,10.70
2019-05-16T08:16:25.226Z,10.80
2019-05-16T08:18:53.150Z,10.94
2019-05-16T08:21:21.084Z,10.98
2019-05-16T08:23:50.393Z,11.02
2019-05-16T08:26:21.910Z,11.04
2019-05-16T08:28:50.243Z,11.07
2019-05-16T08:31:21.448Z,11.11
2019-05-16T08:33:48.092Z,11.14
2019-05-16T08:36:15.826Z,11.16
2019-05-16T08:38:43.807Z,11.17
2019-05-16T08:43:41.667Z,11.19
2019-05-16T08:46:12.263Z,11.27
2019-05-16T08:48:42.351Z,11.32
2019-05-16T08:50:11.203Z,11.17
2019-05-16T08:51:12.221Z,11.36
2019-05-16T08:53:43.315Z,11.34
2019-05-16T08:56:13.078Z,11.34
2019-05-16T08:58:41.024Z,11.46
2019-05-16T09:01:14.351Z,11.50
2019-05-16T09:03:41.607Z,11.52
2019-05-16T09:06:11.515Z,11.62
2019-05-16T09:08:38.079Z,11.60
2019-05-16T09:11:26.930Z,11.63
2019-05-16T09:13:37.022Z,11.61
2019-05-16T09:16:07.759Z,11.73
2019-05-16T09:18:45.942Z,11.78
2019-05-16T09:21:07.356Z,11.79
2019-05-16T09:23:34.646Z,11.78
2019-05-16T09:26:02.481Z,11.81
2019-05-16T09:28:30.398Z,11.83
2019-05-16T09:30:58.175Z,11.89
2019-05-16T09:33:26.985Z,11.94
2019-05-16T09:35:57.247Z,11.99
2019-05-16T09:38:32.738Z,12.01
2019-05-16T09:40:57.054Z,12.04
2019-05-16T09:43:28.074Z,12.10
2019-05-16T09:46:01.758Z,12.11
2019-05-16T09:48:27.728Z,12.01
2019-05-16T09:50:54.237Z,12.14
2019-05-16T09:53:22.102Z,12.13
2019-05-16T09:55:50.669Z,12.15
2019-05-16T09:58:18.762Z,12.19
2019-05-16T10:00:47.588Z,12.33
2019-05-16T10:03:20.196Z,12.35
2019-05-16T10:05:46.673Z,12.35
2019-05-16T10:08:17.088Z,12.51
2019-05-16T10:10:44.609Z,12.53
2019-05-16T10:13:12.512Z,12.61
2019-05-16T10:15:40.279Z,12.61
2019-05-16T10:18:09.396Z,12.65
2019-05-16T10:20:37.294Z,12.68
2019-05-16T10:23:14.422Z,12.72
2019-05-16T10:25:37.538Z,12.77
2019-05-16T10:28:06.012Z,12.80
2019-05-16T10:30:34.148Z,12.80
2019-05-16T10:33:02.087Z,12.82
2019-05-16T10:35:30.372Z,12.90
2019-05-16T10:37:58.146Z,12.90
2019-05-16T10:40:27.845Z,12.95
2019-05-16T10:42:57.871Z,12.98
2019-05-16T10:45:27.319Z,13.03
2019-05-16T10:47:55.196Z,13.03
2019-05-16T10:50:23.248Z,13.07
2019-05-16T10:53:13.331Z,13.07
2019-05-16T10:55:21.029Z,13.11
2019-05-16T10:57:49.246Z,13.17
2019-05-16T11:00:42.658Z,13.17
2019-05-16T11:02:48.436Z,13.19
2019-05-16T11:05:28.743Z,13.32
2019-05-16T11:07:48.608Z,13.32
2019-05-16T11:10:16.508Z,13.32
2019-05-16T11:12:51.184Z,13.27
2019-05-16T11:15:17.239Z,13.21
2019-05-16T11:17:45.277Z,13.21
2019-05-16T11:20:19.627Z,13.23
2019-05-16T11:22:47.758Z,13.74
2019-05-16T11:25:24.752Z,13.74
2019-05-16T11:27:46.872Z,14.22
2019-05-16T11:30:18.008Z,14.22
2019-05-16T11:32:46.971Z,14.07
2019-05-16T11:35:17.221Z,13.97
2019-05-16T11:37:47.203Z,13.87
2019-05-16T11:40:17.755Z,13.87
2019-05-16T11:42:48.691Z,13.88
2019-05-16T11:45:16.595Z,13.86
2019-05-16T11:47:46.843Z,13.84
2019-05-16T11:50:17.489Z,13.91
2019-05-16T11:52:47.383Z,13.92
2019-05-16T11:55:14.617Z,13.92
2019-05-16T11:57:42.359Z,13.94
2019-05-16T12:00:12.470Z,13.99
2019-05-16T12:02:42.741Z,14.13
2019-05-16T12:05:10.334Z,14.41
2019-05-16T12:07:44.267Z,14.51
2019-05-16T12:10:09.122Z,14.65
2019-05-16T12:12:37.208Z,14.75
2019-05-16T12:15:07.819Z,14.80
2019-05-16T12:17:36.067Z,14.84
2019-05-16T12:20:07.510Z,14.97
2019-05-16T12:22:34.546Z,15.09
2019-05-16T12:25:04.015Z,15.15
2019-05-16T12:27:33.711Z,15.23
2019-05-16T12:30:01.882Z,15.32
2019-05-16T12:32:29.828Z,15.39
2019-05-16T12:34:57.587Z,15.51
2019-05-16T12:37:27.580Z,15.66
2019-05-16T12:39:57.269Z,15.78
2019-05-16T12:42:26.975Z,15.78
2019-05-16T12:44:56.334Z,15.88
2019-05-16T12:47:24.354Z,15.89
2019-05-16T12:49:52.675Z,15.81
2019-05-16T12:52:20.459Z,15.80
2019-05-16T12:54:48.924Z,15.93
2019-05-16T12:57:18.193Z,15.93
2019-05-16T12:59:50.144Z,15.98
2019-05-16T13:02:16.461Z,16.00
2019-05-16T13:04:47.058Z,16.06
2019-05-16T13:07:17.242Z,16.06
2019-05-16T13:09:46.642Z,16.12
2019-05-16T13:12:17.526Z,16.12
2019-05-16T13:14:45.108Z,16.15
2019-05-16T13:17:13.022Z,16.19
2019-05-16T13:19:44.317Z,16.07
2019-05-16T13:22:11.312Z,16.17
2019-05-16T13:24:39.047Z,16.58
2019-05-16T13:27:08.402Z,17.05
2019-05-16T13:29:37.193Z,17.39
2019-05-16T13:32:07.593Z,17.58
2019-05-16T13:34:38.130Z,17.61
2019-05-16T13:37:07.451Z,17.75
2019-05-16T13:39:34.732Z,17.91
2019-05-16T13:42:02.656Z,18.10
2019-05-16T13:44:30.550Z,18.30
2019-05-16T13:46:58.376Z,18.44
2019-05-16T13:49:26.838Z,18.50
2019-05-16T13:51:54.773Z,18.40
2019-05-16T13:54:22.623Z,18.38
2019-05-16T13:56:50.471Z,18.49
2019-05-16T13:59:18.906Z,18.48
2019-05-16T14:01:46.807Z,18.51
2019-05-16T14:04:17.112Z,18.55
2019-05-16T14:06:44.345Z,18.52
2019-05-16T14:09:12.192Z,18.61
2019-05-16T14:11:40.072Z,18.50
2019-05-16T14:14:07.974Z,18.60
2019-05-16T14:16:37.690Z,18.70
2019-05-16T14:19:07.507Z,18.84
2019-05-16T14:21:35.504Z,18.95
2019-05-16T14:24:03.663Z,18.66
2019-05-16T14:26:31.417Z,18.32
2019-05-16T14:29:00.284Z,18.07
2019-05-16T14:31:28.038Z,17.86
2019-05-16T14:33:56.800Z,17.70
2019-05-16T14:36:27.862Z,17.62
2019-05-16T14:38:54.373Z,17.26
2019-05-16T14:41:22.088Z,17.04
2019-05-16T14:43:49.985Z,16.91
2019-05-16T14:46:18.514Z,17.00
2019-05-16T14:48:46.602Z,17.19
2019-05-16T14:51:17.697Z,17.31
2019-05-16T14:53:46.907Z,17.32
2019-05-16T14:56:14.240Z,17.43
2019-05-16T14:58:42.719Z,17.40
2019-05-16T15:01:10.571Z,17.30
2019-05-16T15:03:38.518Z,17.47
2019-05-16T15:06:08.635Z,17.47
2019-05-16T15:08:36.347Z,17.40
2019-05-16T15:11:04.204Z,17.39
2019-05-16T15:13:31.979Z,17.43
2019-05-16T15:15:59.850Z,17.34
2019-05-16T15:18:28.103Z,17.47
2019-05-16T15:20:57.530Z,17.65
2019-05-16T15:23:28.330Z,17.43
2019-05-16T15:25:55.072Z,17.50
2019-05-16T15:28:26.977Z,17.61
2019-05-16T15:30:52.635Z,17.60
2019-05-16T15:33:20.532Z,17.58
2019-05-16T15:35:48.576Z,17.52
2019-05-16T15:38:16.775Z,17.38
2019-05-16T15:40:44.559Z,17.01
2019-05-16T15:43:12.326Z,16.99
2019-05-16T15:45:44.033Z,16.92
2019-05-16T15:48:11.650Z,16.99
2019-05-16T15:50:39.804Z,16.90
2019-05-16T15:53:08.137Z,16.89
2019-05-16T15:55:37.266Z,16.86
2019-05-16T15:58:09.782Z,16.85
2019-05-16T16:00:47.833Z,16.75
2019-05-16T16:03:17.596Z,16.78
2019-05-16T16:05:45.780Z,16.73
2019-05-16T16:08:13.793Z,16.74
2019-05-16T16:10:42.787Z,16.85
2019-05-16T16:13:10.883Z,17.01
2019-05-16T16:15:50.309Z,17.10
2019-05-16T16:18:09.246Z,17.08
2019-05-16T16:20:37.539Z,16.93
2019-05-16T16:23:06.779Z,16.80
2019-05-16T16:25:36.206Z,16.92
2019-05-16T16:28:07.295Z,17.01
2019-05-16T16:30:37.367Z,17.05
2019-05-16T16:33:19.067Z,16.97
2019-05-16T16:35:37.840Z,16.85
2019-05-16T16:38:07.083Z,16.76
2019-05-16T16:40:36.829Z,16.74
2019-05-16T16:43:07.746Z,16.80
2019-05-16T16:45:34.557Z,16.70
2019-05-16T16:48:02.396Z,16.46
2019-05-16T16:50:30.285Z,16.42
2019-05-16T16:52:58.137Z,16.47
2019-05-16T16:55:27.550Z,16.30
2019-05-16T16:57:59.432Z,16.18
2019-05-16T17:00:27.970Z,16.12
2019-05-16T17:03:03.272Z,16.05
2019-05-16T17:05:26.608Z,15.98
2019-05-16T17:07:56.980Z,15.90
2019-05-16T17:10:27.467Z,15.79
2019-05-16T17:12:57.667Z,15.55
2019-05-16T17:15:27.239Z,15.61
2019-05-16T17:17:57.380Z,15.52
2019-05-16T17:20:25.121Z,15.40
2019-05-16T17:22:52.936Z,15.38
2019-05-16T17:25:21.594Z,15.38
2019-05-16T17:27:49.330Z,15.35
2019-05-16T17:30:18.781Z,15.36
2019-05-16T17:32:46.783Z,15.33
2019-05-16T17:35:18.791Z,15.27
2019-05-16T17:37:46.664Z,15.13
2019-05-16T17:40:17.629Z,15.16
2019-05-16T17:42:47.651Z,15.08
2019-05-16T17:45:18.085Z,15.07
2019-05-16T17:47:46.640Z,15.06
2019-05-16T17:50:17.232Z,15.07
2019-05-16T17:52:47.566Z,15.21
2019-05-16T17:55:17.167Z,15.31
2019-05-16T17:57:45.871Z,15.38
2019-05-16T18:00:24.395Z,15.41
2019-05-16T18:02:46.546Z,15.43
2019-05-16T18:05:17.099Z,15.50
2019-05-16T18:07:47.171Z,15.55
2019-05-16T18:10:16.595Z,15.59
2019-05-16T18:12:44.313Z,15.61
2019-05-16T18:15:12.788Z,15.56
2019-05-16T18:17:40.634Z,15.58
2019-05-16T18:20:09.408Z,15.57
2019-05-16T18:22:37.273Z,15.55
2019-05-16T18:25:07.053Z,15.53
2019-05-16T18:27:37.403Z,15.55
2019-05-16T18:30:05.952Z,15.54
2019-05-16T18:32:33.705Z,16.04
2019-05-16T18:35:02.380Z,16.58
2019-05-16T18:37:30.997Z,16.98
2019-05-16T18:39:59.900Z,17.29
2019-05-16T18:42:28.641Z,17.54
2019-05-16T18:44:56.660Z,17.69
2019-05-16T18:47:26.920Z,17.67
2019-05-16T18:49:54.589Z,17.69
2019-05-16T18:52:22.451Z,17.76
2019-05-16T18:54:50.305Z,17.79
2019-05-16T18:57:18.623Z,17.44
2019-05-16T18:59:46.360Z,17.03
2019-05-16T19:02:14.417Z,16.69
2019-05-16T19:04:42.753Z,16.43
2019-05-16T19:07:10.961Z,16.28
2019-05-16T19:09:42.971Z,16.07
2019-05-16T19:12:13.178Z,15.90
2019-05-16T19:14:43.099Z,15.75
2019-05-16T19:17:22.002Z,15.68
2019-05-16T19:19:46.366Z,15.53
2019-05-16T19:22:17.087Z,15.43
2019-05-16T19:24:46.566Z,15.33
2019-05-16T19:27:17.252Z,15.28
2019-05-16T19:29:46.243Z,15.26
2019-05-16T19:32:17.224Z,15.16
2019-05-16T19:34:49.244Z,15.01
2019-05-16T19:37:19.880Z,14.92
2019-05-16T19:39:47.866Z,14.85
2019-05-16T19:42:17.056Z,14.77
2019-05-16T19:44:47.166Z,14.66
2019-05-16T19:47:16.223Z,14.66
2019-05-16T19:49:46.318Z,14.63
2019-05-16T19:52:16.251Z,14.63
2019-05-16T19:54:43.394Z,14.53
2019-05-16T19:57:11.187Z,14.44
2019-05-16T19:59:38.953Z,14.37
2019-05-16T20:02:07.715Z,14.32
2019-05-16T20:04:36.626Z,14.30
2019-05-16T20:07:07.232Z,14.24
2019-05-16T20:09:36.251Z,14.24
2019-05-16T20:12:04.224Z,14.14
2019-05-16T20:14:32.565Z,14.17
2019-05-16T20:17:01.621Z,14.13
2019-05-16T20:19:29.567Z,14.03
2019-05-16T20:21:58.117Z,14.03
2019-05-16T20:24:27.243Z,14.00
2019-05-16T20:26:57.075Z,13.96
2019-05-16T20:29:27.354Z,13.90
2019-05-16T20:31:56.399Z,13.87
2019-05-16T20:34:26.756Z,13.80
2019-05-16T20:36:57.080Z,13.76
2019-05-16T20:39:26.699Z,13.76
2019-05-16T20:41:59.352Z,13.73
2019-05-16T20:44:26.595Z,13.71
2019-05-16T20:46:56.603Z,13.69
2019-05-16T20:49:23.854Z,13.66
2019-05-16T20:51:51.659Z,13.63
2019-05-16T20:54:19.490Z,13.61
2019-05-16T20:56:49.530Z,13.56
2019-05-16T20:59:17.260Z,13.47
2019-05-16T21:01:46.444Z,13.40
2019-05-16T21:04:17.137Z,13.40
2019-05-16T21:06:57.565Z,13.39
2019-05-16T21:09:16.804Z,13.35
2019-05-16T21:11:44.435Z,13.29
2019-05-16T21:14:12.970Z,13.24
2019-05-16T21:16:40.933Z,13.19
2019-05-16T21:19:09.248Z,13.07
2019-05-16T21:21:37.040Z,13.07
2019-05-16T21:24:06.928Z,13.08
2019-05-16T21:26:36.721Z,13.00
2019-05-16T21:29:04.541Z,12.96
2019-05-16T21:31:32.300Z,12.89
2019-05-16T21:34:00.090Z,12.82
2019-05-16T21:36:27.831Z,12.82
2019-05-16T21:38:55.773Z,12.81
2019-05-16T21:41:23.589Z,12.79
2019-05-16T21:43:51.376Z,12.77
2019-05-16T21:46:20.185Z,12.73
2019-05-16T21:48:48.260Z,12.68
2019-05-16T21:51:17.061Z,12.63
2019-05-16T21:53:47.201Z,12.63
2019-05-16T21:56:17.569Z,12.61
2019-05-16T21:58:47.362Z,12.55
2019-05-16T22:01:19.560Z,12.48
2019-05-16T22:03:47.337Z,12.45
2019-05-16T22:06:16.660Z,12.39
2019-05-16T22:08:46.701Z,12.39
2019-05-16T22:11:17.084Z,12.39
2019-05-16T22:13:46.436Z,12.35
2019-05-16T22:16:17.378Z,12.31
2019-05-16T22:18:47.188Z,12.27
2019-05-16T22:21:16.367Z,12.27
2019-05-16T22:23:46.341Z,12.17
2019-05-16T22:26:16.631Z,12.16
2019-05-16T22:28:46.639Z,12.17
2019-05-16T22:31:16.510Z,12.11
2019-05-16T22:33:46.911Z,12.08
2019-05-16T22:36:17.160Z,12.05
2019-05-16T22:38:44.510Z,11.95
2019-05-16T22:41:12.355Z,11.99
2019-05-16T22:43:40.241Z,11.95
2019-05-16T22:46:10.032Z,11.91
2019-05-16T22:48:37.710Z,11.83
2019-05-16T22:51:07.132Z,11.82
2019-05-16T22:53:36.855Z,11.79
2019-05-16T22:56:07.244Z,11.76
2019-05-16T22:58:34.744Z,11.76
2019-05-16T23:01:03.382Z,11.70
2019-05-16T23:03:31.244Z,11.73
2019-05-16T23:05:59.007Z,11.75
2019-05-16T23:08:27.321Z,11.75
2019-05-16T23:10:56.496Z,11.68
2019-05-16T23:13:26.575Z,11.64
2019-05-16T23:15:57.005Z,11.61
2019-05-16T23:18:26.573Z,11.49
2019-05-16T23:20:56.795Z,11.49
2019-05-16T23:23:26.432Z,11.47
2019-05-16T23:25:54.129Z,11.36
2019-05-16T23:28:22.534Z,11.37
2019-05-16T23:30:50.289Z,11.37
2019-05-16T23:33:18.086Z,11.37
2019-05-16T23:35:46.829Z,11.41
2019-05-16T23:38:19.737Z,11.36
2019-05-16T23:40:46.846Z,11.40
2019-05-16T23:43:14.448Z,11.36
2019-05-16T23:45:42.630Z,11.34
2019-05-16T23:48:11.330Z,11.31
2019-05-16T23:50:39.295Z,11.31
2019-05-16T23:53:07.589Z,11.28
2019-05-16T23:55:37.126Z,11.22
2019-05-16T23:58:06.946Z,11.22
